Time,TemperatureF,DewpointF,PressureIn,WindDirection,WindDirectionDegrees,WindSpeedMPH,WindSpeedGustMPH,Humidity,HourlyPrecipIn,Conditions,Clouds,dailyrainin,SoftwareType,DateUTC
2013-02-04 01:00:00,40.0,-99.9,-100.00,SW,226,4.0,6.0,-999,-99.99,,,-99.99,,2013-02-04 09:00:00,
2013-02-04 01:52:00,40.0,-99.9,-100.00,SW,226,4.0,6.0,-999,-99.99,,,-99.99,,2013-02-04 09:52:00,
2013-02-04 03:00:00,38.0,-99.9,-100.00,WSW,248,1.0,4.0,-999,-99.99,,,-99.99,,2013-02-04 11:00:00,
2013-02-04 03:53:00,38.0,-99.9,-100.00,WSW,248,1.0,4.0,-999,-99.99,,,-99.99,,2013-02-04 11:53:00,
2013-02-04 05:00:00,37.0,-99.9,-100.00,SW,229,5.0,5.0,-999,-99.99,,,-99.99,,2013-02-04 13:00:00,
2013-02-04 05:52:00,37.0,-99.9,-100.00,SW,229,5.0,5.0,-999,-99.99,,,-99.99,,2013-02-04 13:52:00,
2013-02-04 07:00:00,36.0,-99.9,-100.00,SW,236,2.0,4.0,-999,-99.99,,,-99.99,,2013-02-04 15:00:00,
2013-02-04 07:53:00,36.0,-99.9,-100.00,SW,236,2.0,4.0,-999,-99.99,,,-99.99,,2013-02-04 15:53:00,
2013-02-04 09:00:00,49.0,-99.9,-100.00,SW,230,2.0,2.0,-999,-99.99,,,-99.99,,2013-02-04 17:00:00,
2013-02-04 09:52:00,49.0,-99.9,-100.00,SW,230,2.0,2.0,-999,-99.99,,,-99.99,,2013-02-04 17:52:00,
2013-02-04 11:00:00,65.0,-99.9,-100.00,ENE,73,1.0,2.0,-999,-99.99,,,-99.99,,2013-02-04 19:00:00,
2013-02-04 11:52:00,65.0,-99.9,-100.00,ENE,73,1.0,2.0,-999,-99.99,,,-99.99,,2013-02-04 19:52:00,
2013-02-04 13:00:00,67.0,-99.9,-100.00,NNE,15,2.0,2.0,-999,-99.99,,,-99.99,,2013-02-04 21:00:00,
2013-02-04 13:52:00,67.0,-99.9,-100.00,NNE,15,2.0,2.0,-999,-99.99,,,-99.99,,2013-02-04 21:52:00,
2013-02-04 15:00:00,69.0,-99.9,-100.00,SW,216,4.0,7.0,-999,-99.99,,,-99.99,,2013-02-04 23:00:00,
2013-02-04 15:53:00,69.0,-99.9,-100.00,SW,216,4.0,7.0,-999,-99.99,,,-99.99,,2013-02-04 23:53:00,
2013-02-04 17:00:00,63.0,-99.9,-100.00,SW,218,3.0,5.0,-999,-99.99,,,-99.99,,2013-02-05 01:00:00,
2013-02-04 17:52:00,63.0,-99.9,-100.00,SW,218,3.0,5.0,-999,-99.99,,,-99.99,,2013-02-05 01:52:00,
2013-02-04 19:00:00,52.0,-99.9,-100.00,SSW,206,3.0,4.0,-999,-99.99,,,-99.99,,2013-02-05 03:00:00,
2013-02-04 19:52:00,52.0,-99.9,-100.00,SSW,206,3.0,4.0,-999,-99.99,,,-99.99,,2013-02-05 03:52:00,
2013-02-04 21:00:00,51.0,-99.9,-100.00,SSW,199,4.0,4.0,-999,-99.99,,,-99.99,,2013-02-05 05:00:00,
2013-02-04 21:52:00,51.0,-99.9,-100.00,SSW,199,4.0,4.0,-999,-99.99,,,-99.99,,2013-02-05 05:52:00,
2013-02-04 23:00:00,43.0,-99.9,-100.00,SSW,195,7.0,7.0,-999,-99.99,,,-99.99,,2013-02-05 07:00:00,
2013-02-04 23:52:00,43.0,-99.9,-100.00,SSW,195,7.0,7.0,-999,-99.99,,,-99.99,,2013-02-05 07:52:00,